createdAt,value
2022-12-22T00:01:55.640Z,93843.94
2022-12-22T00:04:41.209Z,93835.66
2022-12-22T00:07:26.676Z,93838.25
2022-12-22T00:10:11.628Z,93847.03
2022-12-22T00:12:57.911Z,93837.75
2022-12-22T00:15:43.293Z,93824.75
2022-12-22T00:18:33.819Z,93809.22
2022-12-22T00:21:19.138Z,93803.81
2022-12-22T00:24:03.952Z,93809.22
2022-12-22T00:26:52.934Z,93799.41
2022-12-22T00:29:38.671Z,93808.25
2022-12-22T00:32:24.058Z,93803.81
2022-12-22T00:35:10.495Z,93789.88
2022-12-22T00:37:56.857Z,93798.09
2022-12-22T00:40:45.710Z,93792.34
2022-12-22T00:43:31.134Z,93760.41
2022-12-22T00:46:18.420Z,93786.91
2022-12-22T00:49:03.485Z,93792.56
2022-12-22T00:51:49.919Z,93787.41
2022-12-22T00:54:37.163Z,93779.34
2022-12-22T00:57:22.540Z,93778.59
2022-12-22T01:00:08.910Z,93785.22
2022-12-22T01:02:54.048Z,93784.47
2022-12-22T01:05:39.379Z,93782.63
2022-12-22T01:08:24.648Z,93776.41
2022-12-22T01:11:09.568Z,93788.59
2022-12-22T01:13:54.279Z,93776.41
2022-12-22T01:16:39.090Z,93777.19
2022-12-22T01:19:23.863Z,93771.72
2022-12-22T01:22:09.093Z,93776.34
2022-12-22T01:24:53.824Z,93784.69
2022-12-22T01:27:38.615Z,93783.63
2022-12-22T01:30:23.953Z,93780.56
2022-12-22T01:33:08.721Z,93784.69
2022-12-22T01:35:54.077Z,93769.69
2022-12-22T01:38:38.933Z,93771.47
2022-12-22T01:41:28.778Z,93762.13
2022-12-22T01:44:13.624Z,93761.38
2022-12-22T01:47:04.605Z,93756.69
2022-12-22T01:50:02.476Z,93753.34
2022-12-22T01:52:51.325Z,93750.44
2022-12-22T01:55:41.230Z,93753.53
2022-12-22T01:58:39.208Z,93738.84
2022-12-22T02:01:24.111Z,93747.59
2022-12-22T02:04:09.246Z,93745.19
2022-12-22T02:07:00.456Z,93743.13
2022-12-22T02:10:08.046Z,93746.47
2022-12-22T02:13:15.919Z,93747.72
2022-12-22T02:16:12.164Z,93746.47
2022-12-22T02:19:16.396Z,93748.00
2022-12-22T02:22:21.911Z,93738.91
2022-12-22T02:25:18.439Z,93732.94
2022-12-22T02:28:06.001Z,93735.06
2022-12-22T02:30:51.993Z,93726.25
2022-12-22T02:33:39.379Z,93720.28
2022-12-22T02:36:55.471Z,93721.06
2022-12-22T02:40:01.804Z,93721.31
2022-12-22T02:42:59.284Z,93721.31
2022-12-22T02:45:58.905Z,93722.88
2022-12-22T02:48:59.434Z,93723.44
2022-12-22T02:51:47.264Z,93720.38
2022-12-22T02:54:34.768Z,93701.53
2022-12-22T02:57:25.120Z,93713.63
2022-12-22T03:00:09.885Z,93702.31
2022-12-22T03:02:54.917Z,93719.66
2022-12-22T03:05:39.992Z,93714.19
2022-12-22T03:08:24.863Z,93714.19
2022-12-22T03:11:09.795Z,93713.63
2022-12-22T03:13:54.606Z,93708.44
2022-12-22T03:16:39.529Z,93709.94
2022-12-22T03:19:24.703Z,93689.19
2022-12-22T03:22:09.488Z,93678.75
2022-12-22T03:24:54.397Z,93666.84
2022-12-22T03:27:20.820Z,93673.59
2022-12-22T03:29:47.226Z,93675.88
2022-12-22T03:32:13.642Z,93660.91
2022-12-22T03:34:40.047Z,93669.44
2022-12-22T03:37:06.449Z,93663.50
2022-12-22T03:39:32.883Z,93663.00
2022-12-22T03:42:17.975Z,93665.09
2022-12-22T03:45:02.746Z,93653.50
2022-12-22T03:47:31.369Z,93657.34
2022-12-22T03:49:58.113Z,93647.53
2022-12-22T03:52:24.544Z,93655.53
2022-12-22T03:54:51.278Z,93656.31
2022-12-22T03:57:17.720Z,93657.81
2022-12-22T03:59:44.152Z,93656.56
2022-12-22T04:02:10.742Z,93661.25
2022-12-22T04:04:37.271Z,93644.94
2022-12-22T04:07:03.813Z,93644.16
2022-12-22T04:09:30.255Z,93636.69
2022-12-22T04:12:15.003Z,93641.09
2022-12-22T04:14:41.431Z,93638.81
2022-12-22T04:17:08.087Z,93641.88
2022-12-22T04:19:34.532Z,93630.75
2022-12-22T04:22:01.521Z,93625.56
2022-12-22T04:24:28.070Z,93611.56
2022-12-22T04:26:54.686Z,93604.28
2022-12-22T04:29:21.184Z,93599.09
2022-12-22T04:31:47.597Z,93600.63
2022-12-22T04:34:14.058Z,93600.63
2022-12-22T04:36:40.499Z,93601.13
2022-12-22T04:39:06.891Z,93597.97
2022-12-22T04:41:33.315Z,93611.09
2022-12-22T04:43:59.858Z,93602.03
2022-12-22T04:46:26.363Z,93592.78
2022-12-22T04:48:59.285Z,93602.41
2022-12-22T04:51:26.749Z,93612.69
2022-12-22T04:53:53.140Z,93597.91
2022-12-22T04:56:19.559Z,93608.75
2022-12-22T04:58:45.956Z,93614.94
2022-12-22T05:01:15.817Z,93615.41
2022-12-22T05:03:42.671Z,93605.72
2022-12-22T05:06:10.031Z,93597.47
2022-12-22T05:08:36.944Z,93604.84
2022-12-22T05:11:03.473Z,93600.91
2022-12-22T05:13:31.738Z,93608.13
2022-12-22T05:16:09.792Z,93613.81
2022-12-22T05:18:36.992Z,93604.19
2022-12-22T05:21:06.427Z,93599.78
2022-12-22T05:23:33.417Z,93605.94
2022-12-22T05:25:59.868Z,93594.03
2022-12-22T05:28:26.317Z,93590.41
2022-12-22T05:30:53.504Z,93586.16
2022-12-22T05:33:20.943Z,93587.50
2022-12-22T05:35:47.406Z,93584.06
2022-12-22T05:38:13.847Z,93589.25
2022-12-22T05:40:40.274Z,93590.00
2022-12-22T05:43:06.715Z,93592.22
2022-12-22T05:45:33.162Z,93579.47
2022-12-22T05:47:59.655Z,93593.69
2022-12-22T05:50:26.299Z,93586.38
2022-12-22T05:53:04.441Z,93598.28
2022-12-22T05:55:30.967Z,93591.56
2022-12-22T05:57:57.423Z,93594.63
2022-12-22T06:00:23.918Z,93591.75
2022-12-22T06:02:50.463Z,93588.38
2022-12-22T06:05:16.917Z,93593.09
2022-12-22T06:07:43.405Z,93583.31
2022-12-22T06:10:12.627Z,93591.09
2022-12-22T06:12:40.265Z,93589.06
2022-12-22T06:15:07.726Z,93580.03
2022-12-22T06:17:36.777Z,93585.22
2022-12-22T06:20:09.487Z,93586.25
2022-12-22T06:22:36.009Z,93572.25
2022-12-22T06:25:02.512Z,93579.81
2022-12-22T06:27:28.931Z,93577.25
2022-12-22T06:29:55.347Z,93576.75
2022-12-22T06:32:21.731Z,93576.28
2022-12-22T06:34:48.141Z,93575.78
2022-12-22T06:37:14.524Z,93561.56
2022-12-22T06:39:40.948Z,93557.72
2022-12-22T06:42:27.317Z,93542.94
2022-12-22T06:44:54.900Z,93543.03
2022-12-22T06:47:21.948Z,93540.72
2022-12-22T06:49:48.586Z,93550.06
2022-12-22T06:52:14.991Z,93545.63
2022-12-22T06:54:41.435Z,93551.59
2022-12-22T06:57:07.840Z,93560.41
2022-12-22T06:59:34.292Z,93559.44
2022-12-22T07:02:00.842Z,93569.81
2022-12-22T07:04:27.357Z,93571.66
2022-12-22T07:06:53.772Z,93576.06
2022-12-22T07:09:20.446Z,93581.72
2022-12-22T07:11:46.845Z,93555.09
2022-12-22T07:14:13.342Z,93584.06
2022-12-22T07:16:39.880Z,93587.91
2022-12-22T07:19:06.344Z,93590.50
2022-12-22T07:21:32.732Z,93587.91
2022-12-22T07:23:59.152Z,93559.38
2022-12-22T07:26:25.623Z,93581.63
2022-12-22T07:28:52.081Z,93574.63
2022-12-22T07:31:18.956Z,93591.75
2022-12-22T07:33:45.514Z,93595.59
2022-12-22T07:36:15.088Z,93597.03
2022-12-22T07:38:44.175Z,93589.53
2022-12-22T07:41:31.285Z,93613.53
2022-12-22T07:44:01.318Z,93611.94
2022-12-22T07:46:30.378Z,93586.94
2022-12-22T07:49:16.135Z,93589.25
2022-12-22T07:51:43.241Z,93601.94
2022-12-22T07:54:12.231Z,93601.94
2022-12-22T07:56:39.074Z,93601.66
2022-12-22T07:59:05.829Z,93602.84
2022-12-22T08:01:32.590Z,93599.38
2022-12-22T08:03:59.201Z,93607.34
2022-12-22T08:06:26.438Z,93615.34
2022-12-22T08:08:53.128Z,93622.81
2022-12-22T08:11:19.632Z,93609.84
2022-12-22T08:13:46.799Z,93605.63
2022-12-22T08:16:14.404Z,93605.44
2022-12-22T08:18:41.408Z,93618.50
2022-12-22T08:21:09.017Z,93622.34
2022-12-22T08:23:36.108Z,93621.00
2022-12-22T08:26:31.069Z,93616.38
2022-12-22T08:29:10.617Z,93622.03
2022-12-22T08:31:38.072Z,93636.38
2022-12-22T08:34:07.668Z,93626.75
2022-12-22T08:36:38.268Z,93607.53
2022-12-22T08:39:04.840Z,93619.44
2022-12-22T08:41:50.302Z,93594.66
2022-12-22T08:44:19.955Z,93613.00
2022-12-22T08:46:47.277Z,93623.59
2022-12-22T08:49:13.834Z,93614.06
2022-12-22T08:51:40.430Z,93636.94
2022-12-22T08:54:07.130Z,93628.00
2022-12-22T08:56:34.371Z,93608.97
2022-12-22T08:59:05.049Z,93653.09
2022-12-22T09:01:33.205Z,93612.63
2022-12-22T09:04:00.114Z,93602.72
2022-12-22T09:06:28.499Z,93595.97
2022-12-22T09:08:59.917Z,93618.75
2022-12-22T09:11:28.101Z,93604.75
2022-12-22T09:13:56.367Z,93613.88
2022-12-22T09:16:24.816Z,93620.78
2022-12-22T09:18:51.463Z,93620.00
2022-12-22T09:21:18.111Z,93631.56
2022-12-22T09:23:44.884Z,93622.69
2022-12-22T09:26:13.616Z,93625.28
2022-12-22T09:28:45.070Z,93623.78
2022-12-22T09:31:14.994Z,93626.94
2022-12-22T09:33:41.416Z,93618.66
2022-12-22T09:36:13.985Z,93622.34
2022-12-22T09:38:43.117Z,93599.56
2022-12-22T09:41:15.413Z,93583.41
2022-12-22T09:43:42.546Z,93575.94
2022-12-22T09:46:27.597Z,93578.63
2022-12-22T09:48:55.131Z,93588.56
2022-12-22T09:51:27.076Z,93585.03
2022-12-22T09:53:59.907Z,93578.59
2022-12-22T09:56:28.169Z,93580.22
2022-12-22T09:58:54.795Z,93579.06
2022-12-22T10:01:39.180Z,93583.69
2022-12-22T10:04:30.051Z,93601.00
2022-12-22T10:07:10.377Z,93610.69
2022-12-22T10:09:52.666Z,93609.88
2022-12-22T10:12:23.053Z,93601.19
2022-12-22T10:14:52.159Z,93604.59
2022-12-22T10:17:34.184Z,93602.47
2022-12-22T10:20:19.110Z,93584.22
2022-12-22T10:22:49.695Z,93604.63
2022-12-22T10:28:24.330Z,93621.66
2022-12-22T10:31:10.681Z,93598.88
2022-12-22T10:33:45.816Z,93600.22
2022-12-22T10:36:14.427Z,93609.84
2022-12-22T10:38:55.265Z,93598.69
2022-12-22T10:41:24.443Z,93598.22
2022-12-22T10:44:00.632Z,93603.88
2022-12-22T10:46:44.146Z,93603.41
2022-12-22T10:49:23.322Z,93614.81
2022-12-22T10:51:56.168Z,93598.31
2022-12-22T10:54:33.733Z,93600.13
2022-12-22T10:57:01.179Z,93593.97
2022-12-22T10:59:27.688Z,93595.53
2022-12-22T11:01:54.192Z,93585.44
2022-12-22T11:04:27.951Z,93590.81
2022-12-22T11:06:58.387Z,93590.53
2022-12-22T11:09:34.982Z,93601.38
2022-12-22T11:12:17.489Z,93588.09
2022-12-22T11:14:57.446Z,93583.59
2022-12-22T11:17:32.871Z,93589.75
2022-12-22T11:20:31.441Z,93589.94
2022-12-22T11:23:05.607Z,93594.72
2022-12-22T11:25:47.281Z,93600.88
2022-12-22T11:28:47.950Z,93609.13
2022-12-22T11:31:40.197Z,93601.25
2022-12-22T11:34:09.539Z,93600.47
2022-12-22T11:36:50.157Z,93592.41
2022-12-22T11:39:23.298Z,93593.94
2022-12-22T11:42:00.864Z,93609.22
2022-12-22T11:44:39.860Z,93598.06
2022-12-22T11:47:24.697Z,93606.63
2022-12-22T11:50:58.555Z,93601.91
2022-12-22T11:53:29.655Z,93601.06
2022-12-22T11:56:23.826Z,93598.34
2022-12-22T11:59:02.380Z,93605.53
2022-12-22T12:02:01.587Z,93606.78
2022-12-22T12:04:31.154Z,93590.91
2022-12-22T12:07:25.980Z,93593.38
2022-12-22T12:10:25.002Z,93612.81
2022-12-22T12:13:12.858Z,93590.38
2022-12-22T12:15:58.996Z,93607.41
2022-12-22T12:18:26.768Z,93594.09
2022-12-22T12:21:08.480Z,93591.41
2022-12-22T12:23:59.824Z,93594.38
2022-12-22T12:26:32.760Z,93592.22
2022-12-22T12:29:28.406Z,93631.09
2022-12-22T12:32:23.962Z,93614.78
2022-12-22T12:34:56.992Z,93612.69
2022-12-22T12:37:35.736Z,93600.75
2022-12-22T12:40:26.863Z,93627.56
2022-12-22T12:42:54.236Z,93616.09
2022-12-22T12:45:39.654Z,93624.84
2022-12-22T12:48:21.674Z,93607.88
2022-12-22T12:50:55.470Z,93618.94
2022-12-22T12:53:29.360Z,93626.63
2022-12-22T12:56:01.558Z,93615.03
2022-12-22T12:58:40.073Z,93616.31
2022-12-22T13:01:18.585Z,93635.94
2022-12-22T13:06:49.986Z,93623.94
2022-12-22T13:12:39.791Z,93640.91
2022-12-22T13:15:31.822Z,93623.94
2022-12-22T13:17:59.028Z,93639.38
2022-12-22T13:20:29.945Z,93626.84
2022-12-22T13:22:59.037Z,93649.28
2022-12-22T13:25:36.547Z,93660.19
2022-12-22T13:28:03.619Z,93662.78
2022-12-22T13:30:30.594Z,93643.78
2022-12-22T13:33:02.011Z,93666.16
2022-12-22T13:35:46.664Z,93655.16
2022-12-22T13:38:35.814Z,93655.34
2022-12-22T13:41:21.354Z,93653.59
2022-12-22T13:43:59.514Z,93678.44
2022-12-22T13:46:27.092Z,93677.06
2022-12-22T13:48:56.823Z,93672.06
2022-12-22T13:51:33.955Z,93661.47
2022-12-22T13:54:22.796Z,93660.09
2022-12-22T13:56:54.719Z,93675.25
2022-12-22T13:59:40.515Z,93678.91
2022-12-22T14:02:10.040Z,93692.22
2022-12-22T14:04:38.954Z,93688.84
2022-12-22T14:07:18.414Z,93712.88
2022-12-22T14:09:46.516Z,93698.34
2022-12-22T14:12:16.945Z,93709.34
2022-12-22T14:14:45.868Z,93724.94
2022-12-22T14:17:24.251Z,93705.97
2022-12-22T14:19:53.537Z,93721.09
2022-12-22T14:22:25.018Z,93723.97
2022-12-22T14:24:55.560Z,93720.91
2022-12-22T14:27:27.917Z,93715.97
2022-12-22T14:29:54.738Z,93739.38
2022-12-22T14:32:40.858Z,93711.38
2022-12-22T14:35:19.409Z,93728.03
2022-12-22T14:37:52.296Z,93738.25
2022-12-22T14:40:36.027Z,93727.59
2022-12-22T14:43:07.010Z,93742.09
2022-12-22T14:45:33.941Z,93742.09
2022-12-22T14:48:00.402Z,93742.09
2022-12-22T14:50:28.412Z,93736.91
2022-12-22T14:52:57.624Z,93740.28
2022-12-22T14:55:42.108Z,93745.19
2022-12-22T14:58:15.641Z,93745.19
2022-12-22T15:00:48.298Z,93737.03
2022-12-22T15:03:34.400Z,93743.66
2022-12-22T15:06:24.480Z,93770.44
2022-12-22T15:08:57.507Z,93760.31
2022-12-22T15:11:24.412Z,93751.78
2022-12-22T15:13:51.760Z,93781.72
2022-12-22T15:16:21.409Z,93778.38
2022-12-22T15:18:49.447Z,93778.38
2022-12-22T15:21:17.868Z,93784.63
2022-12-22T15:23:44.739Z,93780.31
2022-12-22T15:26:11.395Z,93781.81
2022-12-22T15:28:38.116Z,93788.69
2022-12-22T15:31:11.790Z,93784.84
2022-12-22T15:33:38.217Z,93786.69
2022-12-22T15:36:06.402Z,93772.25
2022-12-22T15:38:38.569Z,93783.59
2022-12-22T15:41:05.791Z,93773.78
2022-12-22T15:44:02.134Z,93789.88
2022-12-22T15:46:18.857Z,93788.63
2022-12-22T15:48:46.367Z,93784.00
2022-12-22T15:51:22.324Z,93793.63
2022-12-22T15:53:49.144Z,93795.75
2022-12-22T15:56:20.237Z,93788.22
2022-12-22T15:58:47.149Z,93792.69
2022-12-22T16:01:13.672Z,93786.63
2022-12-22T16:03:40.309Z,93801.53
2022-12-22T16:06:13.689Z,93795.38
2022-12-22T16:08:43.271Z,93795.56
2022-12-22T16:11:09.788Z,93795.56
2022-12-22T16:13:37.716Z,93800.56
2022-12-22T16:16:05.082Z,93813.28
2022-12-22T16:18:32.666Z,93805.78
2022-12-22T16:21:07.837Z,93811.47
2022-12-22T16:23:36.585Z,93809.16
2022-12-22T16:26:04.791Z,93813.28
2022-12-22T16:28:32.919Z,93807.31
2022-12-22T16:31:00.488Z,93816.16
2022-12-22T16:33:27.194Z,93817.25
2022-12-22T16:35:53.708Z,93823.97
2022-12-22T16:38:20.347Z,93820.31
2022-12-22T16:40:50.275Z,93819.28
2022-12-22T16:43:49.997Z,93814.06
2022-12-22T16:46:19.680Z,93819.06
2022-12-22T16:48:55.173Z,93813.28
2022-12-22T16:51:25.752Z,93816.38
2022-12-22T16:53:52.559Z,93825.53
2022-12-22T16:56:22.695Z,93821.09
2022-12-22T16:58:49.506Z,93808.38
2022-12-22T17:01:27.109Z,93810.97
2022-12-22T17:03:54.499Z,93810.97
2022-12-22T17:06:21.115Z,93811.56
2022-12-22T17:08:48.078Z,93808.19
2022-12-22T17:11:26.024Z,93803.28
2022-12-22T17:13:57.345Z,93797.31
2022-12-22T17:16:23.957Z,93800.50
2022-12-22T17:18:50.434Z,93801.38
2022-12-22T17:21:19.160Z,93803.03
2022-12-22T17:23:49.701Z,93796.56
2022-12-22T17:26:19.244Z,93797.94
2022-12-22T17:28:47.094Z,93789.75
2022-12-22T17:31:19.194Z,93786.38
2022-12-22T17:33:46.137Z,93793.38
2022-12-22T17:36:30.512Z,93790.63
2022-12-22T17:38:57.672Z,93776.94
2022-12-22T17:41:24.197Z,93772.91
2022-12-22T17:43:50.605Z,93779.47
2022-12-22T17:46:19.297Z,93774.84
2022-12-22T17:48:46.219Z,93764.25
2022-12-22T17:51:19.540Z,93764.06
2022-12-22T17:53:46.602Z,93757.91
2022-12-22T17:56:20.475Z,93743.88
2022-12-22T17:58:47.186Z,93759.34
2022-12-22T18:01:40.697Z,93759.44
2022-12-22T18:04:10.038Z,93747.88
2022-12-22T18:06:40.986Z,93750.78
2022-12-22T18:09:08.122Z,93743.88
2022-12-22T18:11:36.317Z,93747.31
2022-12-22T18:14:04.561Z,93756.75
2022-12-22T18:16:31.030Z,93754.72
2022-12-22T18:18:57.462Z,93751.66
2022-12-22T18:21:24.899Z,93751.13
2022-12-22T18:23:51.553Z,93751.13
2022-12-22T18:26:27.879Z,93742.88
2022-12-22T18:28:55.377Z,93741.63
2022-12-22T18:31:23.051Z,93734.41
2022-12-22T18:33:50.772Z,93736.13
2022-12-22T18:36:19.576Z,93725.00
2022-12-22T18:38:47.910Z,93726.72
2022-12-22T18:41:20.277Z,93713.75
2022-12-22T18:43:46.927Z,93705.97
2022-12-22T18:46:13.432Z,93701.56
2022-12-22T18:48:39.933Z,93692.50
2022-12-22T18:51:15.300Z,93704.41
2022-12-22T18:53:41.699Z,93700.78
2022-12-22T18:56:11.724Z,93700.38
2022-12-22T18:58:38.221Z,93702.31
2022-12-22T19:01:04.943Z,93697.88
2022-12-22T19:03:31.612Z,93698.19
2022-12-22T19:05:58.550Z,93706.25
2022-12-22T19:08:27.199Z,93693.25
2022-12-22T19:11:03.922Z,93701.25
2022-12-22T19:13:36.776Z,93697.59
2022-12-22T19:16:03.709Z,93702.03
2022-12-22T19:18:30.159Z,93697.59
2022-12-22T19:20:57.010Z,93704.63
2022-12-22T19:23:25.704Z,93701.72
2022-12-22T19:26:08.519Z,93692.41
2022-12-22T19:28:42.443Z,93685.41
2022-12-22T19:31:16.047Z,93687.69
2022-12-22T19:33:43.475Z,93678.88
2022-12-22T19:36:25.755Z,93674.63
2022-12-22T19:39:05.744Z,93661.16
2022-12-22T19:41:38.307Z,93658.00
2022-12-22T19:44:05.697Z,93659.03
2022-12-22T19:46:34.532Z,93663.66
2022-12-22T19:49:01.105Z,93656.75
2022-12-22T19:51:28.837Z,93658.78
2022-12-22T19:53:55.343Z,93652.50
2022-12-22T19:56:28.107Z,93649.63
2022-12-22T19:58:55.637Z,93652.22
2022-12-22T20:01:22.641Z,93649.63
2022-12-22T20:03:49.257Z,93648.06
2022-12-22T20:06:17.475Z,93637.69
2022-12-22T20:08:44.667Z,93630.97
2022-12-22T20:11:17.060Z,93629.63
2022-12-22T20:13:44.089Z,93625.75
2022-12-22T20:16:15.187Z,93633.84
2022-12-22T20:18:42.537Z,93624.25
2022-12-22T20:21:21.150Z,93622.69
2022-12-22T20:23:48.166Z,93617.03
2022-12-22T20:26:19.221Z,93616.00
2022-12-22T20:28:45.715Z,93615.50
2022-12-22T20:31:14.528Z,93607.69
2022-12-22T20:33:41.249Z,93621.75
2022-12-22T20:36:19.271Z,93609.81
2022-12-22T20:38:46.127Z,93610.41
2022-12-22T20:41:12.585Z,93606.56
2022-12-22T20:43:39.529Z,93610.50
2022-12-22T20:46:15.893Z,93600.44
2022-12-22T20:48:46.781Z,93600.22
2022-12-22T20:51:18.160Z,93603.88
2022-12-22T20:53:45.107Z,93602.81
2022-12-22T20:56:28.099Z,93606.00
2022-12-22T20:58:55.338Z,93597.75
2022-12-22T21:01:23.516Z,93600.03
2022-12-22T21:03:50.500Z,93593.28
2022-12-22T21:06:29.224Z,93592.56
2022-12-22T21:08:57.940Z,93588.41
2022-12-22T21:11:25.541Z,93589.44
2022-12-22T21:13:52.252Z,93586.84
2022-12-22T21:16:23.671Z,93579.69
2022-12-22T21:18:50.935Z,93572.94
2022-12-22T21:21:17.546Z,93570.34
2022-12-22T21:23:43.939Z,93564.69
2022-12-22T21:26:29.171Z,93567.28
2022-12-22T21:28:55.994Z,93562.16
2022-12-22T21:31:22.508Z,93564.50
2022-12-22T21:33:50.192Z,93556.97
2022-12-22T21:36:22.621Z,93552.09
2022-12-22T21:38:53.463Z,93542.28
2022-12-22T21:41:39.859Z,93550.38
2022-12-22T21:44:06.270Z,93541.81
2022-12-22T21:46:33.329Z,93532.78
2022-12-22T21:48:59.773Z,93533.75
2022-12-22T21:51:26.193Z,93530.09
2022-12-22T21:53:52.584Z,93532.38
2022-12-22T21:56:19.367Z,93528.28
2022-12-22T21:58:45.806Z,93510.88
2022-12-22T22:01:15.828Z,93511.34
2022-12-22T22:03:42.607Z,93513.94
2022-12-22T22:06:09.068Z,93511.81
2022-12-22T22:08:35.453Z,93507.69
2022-12-22T22:11:01.836Z,93503.56
2022-12-22T22:13:28.222Z,93505.09
2022-12-22T22:15:54.682Z,93492.91
2022-12-22T22:18:21.101Z,93488.78
2022-12-22T22:20:47.899Z,93486.94
2022-12-22T22:23:14.496Z,93480.41
2022-12-22T22:25:41.009Z,93474.94
2022-12-22T22:28:10.376Z,93469.94
2022-12-22T22:30:36.812Z,93449.94
2022-12-22T22:33:03.550Z,93455.13
2022-12-22T22:35:29.998Z,93448.41
2022-12-22T22:37:56.499Z,93441.09
2022-12-22T22:40:23.588Z,93447.81
2022-12-22T22:42:50.043Z,93447.03
2022-12-22T22:45:23.037Z,93440.03
2022-12-22T22:47:51.068Z,93435.88
2022-12-22T22:50:18.907Z,93431.16
2022-12-22T22:52:45.723Z,93422.91
2022-12-22T22:55:12.734Z,93420.31
2022-12-22T22:57:39.179Z,93410.25
2022-12-22T23:00:06.497Z,93423.50
2022-12-22T23:02:33.089Z,93408.25
2022-12-22T23:04:59.612Z,93406.69
2022-12-22T23:07:26.104Z,93399.69
2022-12-22T23:09:52.573Z,93399.22
2022-12-22T23:12:19.175Z,93393.25
2022-12-22T23:14:45.643Z,93387.59
2022-12-22T23:17:12.080Z,93380.56
2022-12-22T23:19:38.572Z,93375.38
2022-12-22T23:22:05.010Z,93367.59
2022-12-22T23:24:31.439Z,93362.41
2022-12-22T23:26:58.728Z,93341.50
2022-12-22T23:29:25.228Z,93342.72
2022-12-22T23:31:51.765Z,93359.81
2022-12-22T23:34:18.234Z,93348.19
2022-12-22T23:36:44.636Z,93330.53
2022-12-22T23:39:11.188Z,93341.97
2022-12-22T23:41:37.614Z,93339.06
2022-12-22T23:44:04.024Z,93337.81
2022-12-22T23:46:30.470Z,93341.19
2022-12-22T23:48:58.455Z,93322.56
2022-12-22T23:51:27.651Z,93326.41
2022-12-22T23:53:55.383Z,93340.13
2022-12-22T23:56:22.757Z,93311.72
2022-12-22T23:58:54.573Z,93316.78
